sensor_id;sensor_type;location;lat;lon;timestamp;temperature;humidity
51327;DHT22;37412;52.836;6.362;2023-03-04T00:00:48;6.00;99.90
51327;DHT22;37412;52.836;6.362;2023-03-04T00:03:34;6.00;99.90
51327;DHT22;37412;52.836;6.362;2023-03-04T00:06:21;6.00;99.90
51327;DHT22;37412;52.836;6.362;2023-03-04T00:09:07;6.00;99.90
51327;DHT22;37412;52.836;6.362;2023-03-04T00:11:53;5.90;99.90
51327;DHT22;37412;52.836;6.362;2023-03-04T00:14:39;5.90;99.90
51327;DHT22;37412;52.836;6.362;2023-03-04T00:17:25;5.90;99.90
51327;DHT22;37412;52.836;6.362;2023-03-04T00:20:11;6.00;99.90
51327;DHT22;37412;52.836;6.362;2023-03-04T00:22:57;6.00;99.90
51327;DHT22;37412;52.836;6.362;2023-03-04T00:25:43;5.90;99.90
51327;DHT22;37412;52.836;6.362;2023-03-04T00:28:29;5.90;99.90
51327;DHT22;37412;52.836;6.362;2023-03-04T00:31:15;5.90;99.90
51327;DHT22;37412;52.836;6.362;2023-03-04T00:34:00;5.90;99.90
51327;DHT22;37412;52.836;6.362;2023-03-04T00:36:46;5.90;99.90
51327;DHT22;37412;52.836;6.362;2023-03-04T00:39:32;5.90;99.90
51327;DHT22;37412;52.836;6.362;2023-03-04T00:42:18;5.90;99.90
51327;DHT22;37412;52.836;6.362;2023-03-04T00:45:04;5.90;99.90
51327;DHT22;37412;52.836;6.362;2023-03-04T00:47:50;5.90;99.90
51327;DHT22;37412;52.836;6.362;2023-03-04T00:50:36;5.90;99.90
51327;DHT22;37412;52.836;6.362;2023-03-04T00:53:22;5.90;99.90
51327;DHT22;37412;52.836;6.362;2023-03-04T00:56:08;5.90;99.90
51327;DHT22;37412;52.836;6.362;2023-03-04T00:58:54;5.90;99.90
51327;DHT22;37412;52.836;6.362;2023-03-04T01:01:40;5.90;99.90
51327;DHT22;37412;52.836;6.362;2023-03-04T01:04:26;5.90;99.90
51327;DHT22;37412;52.836;6.362;2023-03-04T01:07:12;5.90;99.90
51327;DHT22;37412;52.836;6.362;2023-03-04T01:09:57;5.80;99.90
51327;DHT22;37412;52.836;6.362;2023-03-04T01:12:43;5.90;99.90
51327;DHT22;37412;52.836;6.362;2023-03-04T01:15:29;5.90;99.90
51327;DHT22;37412;52.836;6.362;2023-03-04T01:18:15;5.90;99.90
51327;DHT22;37412;52.836;6.362;2023-03-04T01:21:01;5.90;99.90
51327;DHT22;37412;52.836;6.362;2023-03-04T01:23:47;6.10;99.90
51327;DHT22;37412;52.836;6.362;2023-03-04T01:26:33;5.90;99.90
51327;DHT22;37412;52.836;6.362;2023-03-04T01:29:19;5.90;99.90
51327;DHT22;37412;52.836;6.362;2023-03-04T01:32:05;5.80;99.90
51327;DHT22;37412;52.836;6.362;2023-03-04T01:34:51;5.90;99.90
51327;DHT22;37412;52.836;6.362;2023-03-04T01:37:37;5.90;99.90
51327;DHT22;37412;52.836;6.362;2023-03-04T01:40:22;5.90;99.90
51327;DHT22;37412;52.836;6.362;2023-03-04T01:43:10;5.90;99.90
51327;DHT22;37412;52.836;6.362;2023-03-04T01:46:00;5.90;99.90
51327;DHT22;37412;52.836;6.362;2023-03-04T01:48:46;5.90;99.90
51327;DHT22;37412;52.836;6.362;2023-03-04T01:51:32;5.80;99.90
51327;DHT22;37412;52.836;6.362;2023-03-04T01:54:18;5.80;99.90
51327;DHT22;37412;52.836;6.362;2023-03-04T01:57:14;5.80;99.90
51327;DHT22;37412;52.836;6.362;2023-03-04T02:03:16;5.90;99.90
51327;DHT22;37412;52.836;6.362;2023-03-04T02:06:04;5.80;99.90
51327;DHT22;37412;52.836;6.362;2023-03-04T02:08:50;5.80;99.90
51327;DHT22;37412;52.836;6.362;2023-03-04T02:11:36;5.80;99.90
51327;DHT22;37412;52.836;6.362;2023-03-04T02:14:22;5.80;99.90
51327;DHT22;37412;52.836;6.362;2023-03-04T02:17:10;5.80;99.90
51327;DHT22;37412;52.836;6.362;2023-03-04T02:20:00;5.80;99.90
51327;DHT22;37412;52.836;6.362;2023-03-04T02:28:55;5.80;99.90
51327;DHT22;37412;52.836;6.362;2023-03-04T02:31:43;5.80;99.90
51327;DHT22;37412;52.836;6.362;2023-03-04T02:34:30;5.80;99.90
51327;DHT22;37412;52.836;6.362;2023-03-04T02:37:18;5.80;99.90
51327;DHT22;37412;52.836;6.362;2023-03-04T02:40:04;5.80;99.90
51327;DHT22;37412;52.836;6.362;2023-03-04T02:42:51;5.80;99.90
51327;DHT22;37412;52.836;6.362;2023-03-04T02:45:41;5.80;99.90
51327;DHT22;37412;52.836;6.362;2023-03-04T02:48:28;5.80;99.90
51327;DHT22;37412;52.836;6.362;2023-03-04T02:51:13;5.80;99.90
51327;DHT22;37412;52.836;6.362;2023-03-04T02:53:59;5.80;99.90
51327;DHT22;37412;52.836;6.362;2023-03-04T02:56:46;5.80;99.90
51327;DHT22;37412;52.836;6.362;2023-03-04T02:59:32;5.70;99.90
51327;DHT22;37412;52.836;6.362;2023-03-04T03:02:18;5.70;99.90
51327;DHT22;37412;52.836;6.362;2023-03-04T03:05:04;5.80;99.90
51327;DHT22;37412;52.836;6.362;2023-03-04T03:07:49;5.70;99.90
51327;DHT22;37412;52.836;6.362;2023-03-04T03:10:35;5.60;99.90
51327;DHT22;37412;52.836;6.362;2023-03-04T03:13:21;5.70;99.90
51327;DHT22;37412;52.836;6.362;2023-03-04T03:16:07;5.70;99.90
51327;DHT22;37412;52.836;6.362;2023-03-04T03:18:53;5.70;99.90
51327;DHT22;37412;52.836;6.362;2023-03-04T03:21:39;5.70;99.90
51327;DHT22;37412;52.836;6.362;2023-03-04T03:24:25;5.70;99.90
51327;DHT22;37412;52.836;6.362;2023-03-04T03:27:10;5.70;99.90
51327;DHT22;37412;52.836;6.362;2023-03-04T03:29:56;6.20;99.90
51327;DHT22;37412;52.836;6.362;2023-03-04T03:32:42;5.70;99.90
51327;DHT22;37412;52.836;6.362;2023-03-04T03:35:28;5.70;99.90
51327;DHT22;37412;52.836;6.362;2023-03-04T03:38:14;5.70;99.90
51327;DHT22;37412;52.836;6.362;2023-03-04T03:41:00;5.70;99.90
51327;DHT22;37412;52.836;6.362;2023-03-04T03:43:45;5.70;99.90
51327;DHT22;37412;52.836;6.362;2023-03-04T03:46:31;5.70;99.90
51327;DHT22;37412;52.836;6.362;2023-03-04T03:49:17;5.60;99.90
51327;DHT22;37412;52.836;6.362;2023-03-04T03:52:03;5.70;99.90
51327;DHT22;37412;52.836;6.362;2023-03-04T03:54:49;5.70;99.90
51327;DHT22;37412;52.836;6.362;2023-03-04T03:57:35;5.60;99.90
51327;DHT22;37412;52.836;6.362;2023-03-04T04:00:21;5.70;99.90
51327;DHT22;37412;52.836;6.362;2023-03-04T04:03:08;5.60;99.90
51327;DHT22;37412;52.836;6.362;2023-03-04T04:05:55;5.80;99.90
51327;DHT22;37412;52.836;6.362;2023-03-04T04:08:41;5.60;99.90
51327;DHT22;37412;52.836;6.362;2023-03-04T04:11:27;5.80;99.90
51327;DHT22;37412;52.836;6.362;2023-03-04T04:14:13;5.70;99.90
51327;DHT22;37412;52.836;6.362;2023-03-04T04:16:59;5.60;99.90
51327;DHT22;37412;52.836;6.362;2023-03-04T04:19:45;5.60;99.90
51327;DHT22;37412;52.836;6.362;2023-03-04T04:22:30;5.70;99.90
51327;DHT22;37412;52.836;6.362;2023-03-04T04:25:16;5.60;99.90
51327;DHT22;37412;52.836;6.362;2023-03-04T04:28:02;5.60;99.90
51327;DHT22;37412;52.836;6.362;2023-03-04T04:30:48;5.60;99.90
51327;DHT22;37412;52.836;6.362;2023-03-04T04:33:34;5.60;99.90
51327;DHT22;37412;52.836;6.362;2023-03-04T04:36:20;5.70;99.90
51327;DHT22;37412;52.836;6.362;2023-03-04T04:39:06;5.60;99.90
51327;DHT22;37412;52.836;6.362;2023-03-04T04:41:52;5.60;99.90
51327;DHT22;37412;52.836;6.362;2023-03-04T04:44:38;5.60;99.90
51327;DHT22;37412;52.836;6.362;2023-03-04T04:47:23;5.60;99.90
51327;DHT22;37412;52.836;6.362;2023-03-04T04:50:09;5.60;99.90
51327;DHT22;37412;52.836;6.362;2023-03-04T04:52:55;5.60;99.90
51327;DHT22;37412;52.836;6.362;2023-03-04T04:55:41;5.60;99.90
51327;DHT22;37412;52.836;6.362;2023-03-04T04:58:27;5.60;99.90
51327;DHT22;37412;52.836;6.362;2023-03-04T05:01:13;5.90;99.90
51327;DHT22;37412;52.836;6.362;2023-03-04T05:03:59;5.60;99.90
51327;DHT22;37412;52.836;6.362;2023-03-04T05:06:45;5.60;99.90
51327;DHT22;37412;52.836;6.362;2023-03-04T05:09:31;5.60;99.90
51327;DHT22;37412;52.836;6.362;2023-03-04T05:12:17;5.50;99.90
51327;DHT22;37412;52.836;6.362;2023-03-04T05:15:03;5.60;99.90
51327;DHT22;37412;52.836;6.362;2023-03-04T05:17:49;5.50;99.90
51327;DHT22;37412;52.836;6.362;2023-03-04T05:20:35;5.50;99.90
51327;DHT22;37412;52.836;6.362;2023-03-04T05:23:21;5.50;99.90
51327;DHT22;37412;52.836;6.362;2023-03-04T05:26:08;5.50;99.90
51327;DHT22;37412;52.836;6.362;2023-03-04T05:28:54;5.40;99.90
51327;DHT22;37412;52.836;6.362;2023-03-04T05:31:40;5.50;99.90
51327;DHT22;37412;52.836;6.362;2023-03-04T05:34:25;5.50;99.90
51327;DHT22;37412;52.836;6.362;2023-03-04T05:37:11;5.40;99.90
51327;DHT22;37412;52.836;6.362;2023-03-04T05:39:57;5.40;99.90
51327;DHT22;37412;52.836;6.362;2023-03-04T05:42:43;5.40;99.90
51327;DHT22;37412;52.836;6.362;2023-03-04T05:45:30;5.30;99.90
51327;DHT22;37412;52.836;6.362;2023-03-04T05:48:16;5.30;99.90
51327;DHT22;37412;52.836;6.362;2023-03-04T05:51:02;5.30;99.90
51327;DHT22;37412;52.836;6.362;2023-03-04T05:53:48;5.20;99.90
51327;DHT22;37412;52.836;6.362;2023-03-04T05:56:34;5.30;99.90
51327;DHT22;37412;52.836;6.362;2023-03-04T05:59:20;5.10;99.90
51327;DHT22;37412;52.836;6.362;2023-03-04T06:02:06;5.10;99.90
51327;DHT22;37412;52.836;6.362;2023-03-04T06:04:52;5.20;99.90
51327;DHT22;37412;52.836;6.362;2023-03-04T06:07:38;5.20;99.90
51327;DHT22;37412;52.836;6.362;2023-03-04T06:10:24;5.20;99.90
51327;DHT22;37412;52.836;6.362;2023-03-04T06:13:10;5.20;99.90
51327;DHT22;37412;52.836;6.362;2023-03-04T06:15:56;5.20;99.90
51327;DHT22;37412;52.836;6.362;2023-03-04T06:18:43;5.10;99.90
51327;DHT22;37412;52.836;6.362;2023-03-04T06:21:29;5.20;99.90
51327;DHT22;37412;52.836;6.362;2023-03-04T06:24:15;5.10;99.90
51327;DHT22;37412;52.836;6.362;2023-03-04T06:27:00;5.20;99.90
51327;DHT22;37412;52.836;6.362;2023-03-04T06:29:46;5.20;99.90
51327;DHT22;37412;52.836;6.362;2023-03-04T06:32:32;5.20;99.90
51327;DHT22;37412;52.836;6.362;2023-03-04T06:35:18;5.20;99.90
51327;DHT22;37412;52.836;6.362;2023-03-04T06:38:04;5.30;99.90
51327;DHT22;37412;52.836;6.362;2023-03-04T06:40:50;5.30;99.90
51327;DHT22;37412;52.836;6.362;2023-03-04T06:43:36;5.30;99.90
51327;DHT22;37412;52.836;6.362;2023-03-04T06:46:22;5.30;99.90
51327;DHT22;37412;52.836;6.362;2023-03-04T06:49:08;5.30;99.90
51327;DHT22;37412;52.836;6.362;2023-03-04T06:51:54;5.30;99.90
51327;DHT22;37412;52.836;6.362;2023-03-04T06:54:40;5.30;99.90
51327;DHT22;37412;52.836;6.362;2023-03-04T06:57:26;5.30;99.90
51327;DHT22;37412;52.836;6.362;2023-03-04T07:00:12;5.30;99.90
51327;DHT22;37412;52.836;6.362;2023-03-04T07:02:58;5.40;99.90
51327;DHT22;37412;52.836;6.362;2023-03-04T07:05:44;5.40;99.90
51327;DHT22;37412;52.836;6.362;2023-03-04T07:08:29;5.40;99.90
51327;DHT22;37412;52.836;6.362;2023-03-04T07:11:15;5.40;99.90
51327;DHT22;37412;52.836;6.362;2023-03-04T07:14:01;5.40;99.90
51327;DHT22;37412;52.836;6.362;2023-03-04T07:16:47;5.50;99.90
51327;DHT22;37412;52.836;6.362;2023-03-04T07:19:33;5.50;99.90
51327;DHT22;37412;52.836;6.362;2023-03-04T07:22:19;5.70;99.90
51327;DHT22;37412;52.836;6.362;2023-03-04T07:25:05;6.10;99.90
51327;DHT22;37412;52.836;6.362;2023-03-04T07:27:51;6.70;99.90
51327;DHT22;37412;52.836;6.362;2023-03-04T07:30:37;7.20;99.90
51327;DHT22;37412;52.836;6.362;2023-03-04T07:33:23;7.20;99.90
51327;DHT22;37412;52.836;6.362;2023-03-04T07:36:08;7.10;99.90
51327;DHT22;37412;52.836;6.362;2023-03-04T07:38:55;7.00;99.90
51327;DHT22;37412;52.836;6.362;2023-03-04T07:41:41;6.90;99.90
51327;DHT22;37412;52.836;6.362;2023-03-04T07:44:27;6.80;99.90
51327;DHT22;37412;52.836;6.362;2023-03-04T07:47:13;6.70;99.90
51327;DHT22;37412;52.836;6.362;2023-03-04T07:49:59;6.70;99.90
51327;DHT22;37412;52.836;6.362;2023-03-04T07:52:46;6.60;99.90
51327;DHT22;37412;52.836;6.362;2023-03-04T07:55:32;6.60;99.90
51327;DHT22;37412;52.836;6.362;2023-03-04T07:58:18;6.50;99.90
51327;DHT22;37412;52.836;6.362;2023-03-04T08:01:11;6.50;99.90
51327;DHT22;37412;52.836;6.362;2023-03-04T08:03:57;6.50;99.90
51327;DHT22;37412;52.836;6.362;2023-03-04T08:06:43;6.50;99.90
51327;DHT22;37412;52.836;6.362;2023-03-04T08:09:29;6.50;99.90
51327;DHT22;37412;52.836;6.362;2023-03-04T08:12:16;6.50;99.90
51327;DHT22;37412;52.836;6.362;2023-03-04T08:15:02;6.40;99.90
51327;DHT22;37412;52.836;6.362;2023-03-04T08:17:48;6.40;99.90
51327;DHT22;37412;52.836;6.362;2023-03-04T08:20:34;6.40;99.90
51327;DHT22;37412;52.836;6.362;2023-03-04T08:23:20;6.40;99.90
51327;DHT22;37412;52.836;6.362;2023-03-04T08:26:07;6.40;99.90
51327;DHT22;37412;52.836;6.362;2023-03-04T08:28:53;6.50;99.90
51327;DHT22;37412;52.836;6.362;2023-03-04T08:31:39;6.90;99.90
51327;DHT22;37412;52.836;6.362;2023-03-04T08:34:25;7.20;99.90
51327;DHT22;37412;52.836;6.362;2023-03-04T08:37:12;7.40;99.90
51327;DHT22;37412;52.836;6.362;2023-03-04T08:39:57;7.30;99.90
51327;DHT22;37412;52.836;6.362;2023-03-04T08:42:43;7.30;99.90
51327;DHT22;37412;52.836;6.362;2023-03-04T08:45:29;7.20;99.90
51327;DHT22;37412;52.836;6.362;2023-03-04T08:48:15;7.20;99.90
51327;DHT22;37412;52.836;6.362;2023-03-04T08:51:05;7.30;99.90
51327;DHT22;37412;52.836;6.362;2023-03-04T08:53:51;7.30;99.90
51327;DHT22;37412;52.836;6.362;2023-03-04T08:56:37;7.30;99.90
51327;DHT22;37412;52.836;6.362;2023-03-04T08:59:23;7.20;99.90
51327;DHT22;37412;52.836;6.362;2023-03-04T09:02:09;7.20;99.90
51327;DHT22;37412;52.836;6.362;2023-03-04T09:04:55;7.10;99.90
51327;DHT22;37412;52.836;6.362;2023-03-04T09:07:41;7.10;99.90
51327;DHT22;37412;52.836;6.362;2023-03-04T09:10:26;7.10;99.90
51327;DHT22;37412;52.836;6.362;2023-03-04T09:13:12;7.00;99.90
51327;DHT22;37412;52.836;6.362;2023-03-04T09:16:01;6.90;99.90
51327;DHT22;37412;52.836;6.362;2023-03-04T09:18:47;6.90;99.90
51327;DHT22;37412;52.836;6.362;2023-03-04T09:21:33;6.90;99.90
51327;DHT22;37412;52.836;6.362;2023-03-04T09:24:19;6.90;99.90
51327;DHT22;37412;52.836;6.362;2023-03-04T09:27:05;6.90;99.90
51327;DHT22;37412;52.836;6.362;2023-03-04T09:29:51;6.90;99.90
51327;DHT22;37412;52.836;6.362;2023-03-04T09:32:37;7.00;99.90
51327;DHT22;37412;52.836;6.362;2023-03-04T09:49:20;7.30;99.90
51327;DHT22;37412;52.836;6.362;2023-03-04T09:55:34;7.30;99.90
51327;DHT22;37412;52.836;6.362;2023-03-04T10:04:43;7.10;99.90
51327;DHT22;37412;52.836;6.362;2023-03-04T10:07:35;7.10;99.90
51327;DHT22;37412;52.836;6.362;2023-03-04T10:13:17;7.20;99.90
51327;DHT22;37412;52.836;6.362;2023-03-04T10:16:08;7.30;99.90
51327;DHT22;37412;52.836;6.362;2023-03-04T10:19:25;7.40;99.90
51327;DHT22;37412;52.836;6.362;2023-03-04T10:22:19;7.30;99.90
51327;DHT22;37412;52.836;6.362;2023-03-04T10:25:24;7.30;99.90
51327;DHT22;37412;52.836;6.362;2023-03-04T10:28:20;7.20;99.90
51327;DHT22;37412;52.836;6.362;2023-03-04T10:31:10;7.10;99.90
51327;DHT22;37412;52.836;6.362;2023-03-04T10:33:56;7.00;99.90
51327;DHT22;37412;52.836;6.362;2023-03-04T10:39:42;6.90;99.90
51327;DHT22;37412;52.836;6.362;2023-03-04T10:42:29;6.80;99.90
51327;DHT22;37412;52.836;6.362;2023-03-04T10:45:22;6.90;99.90
51327;DHT22;37412;52.836;6.362;2023-03-04T10:48:19;7.00;99.90
51327;DHT22;37412;52.836;6.362;2023-03-04T10:51:22;7.10;99.90
51327;DHT22;37412;52.836;6.362;2023-03-04T10:57:37;7.20;99.90
51327;DHT22;37412;52.836;6.362;2023-03-04T11:00:29;7.20;99.90
51327;DHT22;37412;52.836;6.362;2023-03-04T11:06:19;7.00;99.90
51327;DHT22;37412;52.836;6.362;2023-03-04T11:09:05;7.10;99.90
51327;DHT22;37412;52.836;6.362;2023-03-04T11:11:54;7.20;99.90
51327;DHT22;37412;52.836;6.362;2023-03-04T11:14:50;7.40;99.90
51327;DHT22;37412;52.836;6.362;2023-03-04T11:17:46;7.80;99.90
51327;DHT22;37412;52.836;6.362;2023-03-04T11:20:40;8.30;99.90
51327;DHT22;37412;52.836;6.362;2023-03-04T11:26:22;8.40;99.90
51327;DHT22;37412;52.836;6.362;2023-03-04T11:29:16;8.30;99.90
51327;DHT22;37412;52.836;6.362;2023-03-04T11:32:13;8.10;99.90
51327;DHT22;37412;52.836;6.362;2023-03-04T11:35:13;7.90;99.90
51327;DHT22;37412;52.836;6.362;2023-03-04T11:38:11;7.70;99.90
51327;DHT22;37412;52.836;6.362;2023-03-04T11:41:10;7.60;99.90
51327;DHT22;37412;52.836;6.362;2023-03-04T11:43:58;7.60;99.90
51327;DHT22;37412;52.836;6.362;2023-03-04T11:53:43;8.10;99.90
51327;DHT22;37412;52.836;6.362;2023-03-04T11:56:41;8.20;99.90
51327;DHT22;37412;52.836;6.362;2023-03-04T12:02:45;9.30;99.90
51327;DHT22;37412;52.836;6.362;2023-03-04T12:11:44;8.70;99.90
51327;DHT22;37412;52.836;6.362;2023-03-04T12:20:43;8.00;99.90
51327;DHT22;37412;52.836;6.362;2023-03-04T12:26:58;8.30;99.90
51327;DHT22;37412;52.836;6.362;2023-03-04T12:30:00;8.80;99.90
51327;DHT22;37412;52.836;6.362;2023-03-04T12:36:04;8.70;99.90
51327;DHT22;37412;52.836;6.362;2023-03-04T12:42:39;8.60;99.90
51327;DHT22;37412;52.836;6.362;2023-03-04T12:45:43;8.50;99.90
51327;DHT22;37412;52.836;6.362;2023-03-04T12:48:35;8.40;99.90
51327;DHT22;37412;52.836;6.362;2023-03-04T12:51:35;8.30;99.90
51327;DHT22;37412;52.836;6.362;2023-03-04T12:54:40;8.20;99.90
51327;DHT22;37412;52.836;6.362;2023-03-04T12:57:28;8.00;99.90
51327;DHT22;37412;52.836;6.362;2023-03-04T13:03:59;7.70;99.90
51327;DHT22;37412;52.836;6.362;2023-03-04T13:06:52;7.60;99.90
51327;DHT22;37412;52.836;6.362;2023-03-04T13:09:56;7.60;99.90
51327;DHT22;37412;52.836;6.362;2023-03-04T13:13:02;7.70;99.90
51327;DHT22;37412;52.836;6.362;2023-03-04T13:16:00;7.80;99.90
51327;DHT22;37412;52.836;6.362;2023-03-04T13:18:47;7.80;99.90
51327;DHT22;37412;52.836;6.362;2023-03-04T13:21:45;7.70;99.90
51327;DHT22;37412;52.836;6.362;2023-03-04T13:24:46;7.50;99.90
51327;DHT22;37412;52.836;6.362;2023-03-04T13:28:01;7.30;99.90
51327;DHT22;37412;52.836;6.362;2023-03-04T13:36:32;7.20;99.90
51327;DHT22;37412;52.836;6.362;2023-03-04T13:39:24;7.20;99.90
51327;DHT22;37412;52.836;6.362;2023-03-04T13:42:41;7.20;99.90
51327;DHT22;37412;52.836;6.362;2023-03-04T13:45:35;7.30;99.90
51327;DHT22;37412;52.836;6.362;2023-03-04T13:48:29;7.40;99.90
51327;DHT22;37412;52.836;6.362;2023-03-04T13:51:28;7.40;99.90
51327;DHT22;37412;52.836;6.362;2023-03-04T13:57:19;7.30;99.90
51327;DHT22;37412;52.836;6.362;2023-03-04T14:00:11;7.30;99.90
51327;DHT22;37412;52.836;6.362;2023-03-04T14:03:11;7.80;99.90
51327;DHT22;37412;52.836;6.362;2023-03-04T14:06:17;8.50;99.90
51327;DHT22;37412;52.836;6.362;2023-03-04T14:09:15;8.70;99.90
51327;DHT22;37412;52.836;6.362;2023-03-04T14:12:03;8.70;99.90
51327;DHT22;37412;52.836;6.362;2023-03-04T14:14:58;8.60;99.90
51327;DHT22;37412;52.836;6.362;2023-03-04T14:17:56;8.40;99.90
51327;DHT22;37412;52.836;6.362;2023-03-04T14:20:48;8.20;99.90
51327;DHT22;37412;52.836;6.362;2023-03-04T14:23:34;8.20;99.90
51327;DHT22;37412;52.836;6.362;2023-03-04T14:26:21;8.10;99.90
51327;DHT22;37412;52.836;6.362;2023-03-04T14:29:21;7.90;99.90
51327;DHT22;37412;52.836;6.362;2023-03-04T14:32:10;7.80;99.90
51327;DHT22;37412;52.836;6.362;2023-03-04T14:35:01;7.70;99.90
51327;DHT22;37412;52.836;6.362;2023-03-04T14:40:52;7.50;99.90
51327;DHT22;37412;52.836;6.362;2023-03-04T14:43:49;7.50;99.90
51327;DHT22;37412;52.836;6.362;2023-03-04T14:46:45;7.60;99.90
51327;DHT22;37412;52.836;6.362;2023-03-04T14:49:34;7.60;99.90
51327;DHT22;37412;52.836;6.362;2023-03-04T14:52:40;7.60;99.90
51327;DHT22;37412;52.836;6.362;2023-03-04T14:55:26;7.50;99.90
51327;DHT22;37412;52.836;6.362;2023-03-04T14:58:21;7.40;99.90
51327;DHT22;37412;52.836;6.362;2023-03-04T15:04:06;7.20;99.90
51327;DHT22;37412;52.836;6.362;2023-03-04T15:06:53;7.20;99.90
51327;DHT22;37412;52.836;6.362;2023-03-04T15:09:39;7.10;99.90
51327;DHT22;37412;52.836;6.362;2023-03-04T15:12:28;7.10;99.90
51327;DHT22;37412;52.836;6.362;2023-03-04T15:21:35;6.80;99.90
51327;DHT22;37412;52.836;6.362;2023-03-04T15:24:22;6.80;99.90
51327;DHT22;37412;52.836;6.362;2023-03-04T15:27:11;6.80;99.90
51327;DHT22;37412;52.836;6.362;2023-03-04T15:29:58;6.80;99.90
51327;DHT22;37412;52.836;6.362;2023-03-04T15:32:45;6.80;99.90
51327;DHT22;37412;52.836;6.362;2023-03-04T15:35:32;6.70;99.90
51327;DHT22;37412;52.836;6.362;2023-03-04T15:38:18;6.70;99.90
51327;DHT22;37412;52.836;6.362;2023-03-04T15:41:04;6.70;99.90
51327;DHT22;37412;52.836;6.362;2023-03-04T15:43:52;6.70;99.90
51327;DHT22;37412;52.836;6.362;2023-03-04T15:46:38;6.60;99.90
51327;DHT22;37412;52.836;6.362;2023-03-04T15:49:24;6.60;99.90
51327;DHT22;37412;52.836;6.362;2023-03-04T15:52:19;6.50;99.90
51327;DHT22;37412;52.836;6.362;2023-03-04T15:55:06;6.50;99.90
51327;DHT22;37412;52.836;6.362;2023-03-04T15:57:54;6.60;99.90
51327;DHT22;37412;52.836;6.362;2023-03-04T16:00:41;6.50;99.90
51327;DHT22;37412;52.836;6.362;2023-03-04T16:03:27;6.50;99.90
51327;DHT22;37412;52.836;6.362;2023-03-04T16:06:14;6.50;99.90
51327;DHT22;37412;52.836;6.362;2023-03-04T16:09:03;6.50;99.90
51327;DHT22;37412;52.836;6.362;2023-03-04T16:11:49;6.60;99.90
51327;DHT22;37412;52.836;6.362;2023-03-04T16:14:35;6.50;99.90
51327;DHT22;37412;52.836;6.362;2023-03-04T16:17:21;6.50;99.90
51327;DHT22;37412;52.836;6.362;2023-03-04T16:20:07;6.50;99.90
51327;DHT22;37412;52.836;6.362;2023-03-04T16:22:57;6.50;99.90
51327;DHT22;37412;52.836;6.362;2023-03-04T16:25:46;6.50;99.90
51327;DHT22;37412;52.836;6.362;2023-03-04T16:28:33;6.40;99.90
51327;DHT22;37412;52.836;6.362;2023-03-04T16:31:19;6.40;99.90
51327;DHT22;37412;52.836;6.362;2023-03-04T16:34:06;6.40;99.90
51327;DHT22;37412;52.836;6.362;2023-03-04T16:36:52;6.40;99.90
51327;DHT22;37412;52.836;6.362;2023-03-04T16:39:38;6.30;99.90
51327;DHT22;37412;52.836;6.362;2023-03-04T16:42:28;6.20;99.90
51327;DHT22;37412;52.836;6.362;2023-03-04T16:45:17;6.20;99.90
51327;DHT22;37412;52.836;6.362;2023-03-04T16:48:03;6.20;99.90
51327;DHT22;37412;52.836;6.362;2023-03-04T16:50:49;6.10;99.90
51327;DHT22;37412;52.836;6.362;2023-03-04T16:53:37;6.10;99.90
51327;DHT22;37412;52.836;6.362;2023-03-04T16:56:24;6.10;99.90
51327;DHT22;37412;52.836;6.362;2023-03-04T16:59:16;6.00;99.90
51327;DHT22;37412;52.836;6.362;2023-03-04T17:02:02;6.00;99.90
51327;DHT22;37412;52.836;6.362;2023-03-04T17:04:49;6.00;99.90
51327;DHT22;37412;52.836;6.362;2023-03-04T17:07:35;5.90;99.90
51327;DHT22;37412;52.836;6.362;2023-03-04T17:10:21;5.80;99.90
51327;DHT22;37412;52.836;6.362;2023-03-04T17:13:08;5.80;99.90
51327;DHT22;37412;52.836;6.362;2023-03-04T17:15:54;5.70;99.90
51327;DHT22;37412;52.836;6.362;2023-03-04T17:18:40;5.80;99.90
51327;DHT22;37412;52.836;6.362;2023-03-04T17:21:26;5.70;99.90
51327;DHT22;37412;52.836;6.362;2023-03-04T17:24:12;5.70;99.90
51327;DHT22;37412;52.836;6.362;2023-03-04T17:26:58;5.60;99.90
51327;DHT22;37412;52.836;6.362;2023-03-04T17:29:44;5.50;99.90
51327;DHT22;37412;52.836;6.362;2023-03-04T17:32:32;5.50;99.90
51327;DHT22;37412;52.836;6.362;2023-03-04T17:35:18;5.50;99.90
51327;DHT22;37412;52.836;6.362;2023-03-04T17:38:04;5.50;99.90
51327;DHT22;37412;52.836;6.362;2023-03-04T17:40:50;5.40;99.90
51327;DHT22;37412;52.836;6.362;2023-03-04T17:43:36;5.40;99.90
51327;DHT22;37412;52.836;6.362;2023-03-04T17:46:25;5.30;99.90
51327;DHT22;37412;52.836;6.362;2023-03-04T17:49:11;5.30;99.90
51327;DHT22;37412;52.836;6.362;2023-03-04T17:51:57;5.30;99.90
51327;DHT22;37412;52.836;6.362;2023-03-04T17:54:44;5.30;99.90
51327;DHT22;37412;52.836;6.362;2023-03-04T17:57:30;5.40;99.90
51327;DHT22;37412;52.836;6.362;2023-03-04T18:00:20;5.40;99.90
51327;DHT22;37412;52.836;6.362;2023-03-04T18:03:09;5.40;99.90
51327;DHT22;37412;52.836;6.362;2023-03-04T18:05:56;5.40;99.90
51327;DHT22;37412;52.836;6.362;2023-03-04T18:08:43;5.40;99.90
51327;DHT22;37412;52.836;6.362;2023-03-04T18:11:31;5.40;99.90
51327;DHT22;37412;52.836;6.362;2023-03-04T18:14:18;5.40;99.90
51327;DHT22;37412;52.836;6.362;2023-03-04T18:17:04;5.40;99.90
51327;DHT22;37412;52.836;6.362;2023-03-04T18:19:50;5.40;99.90
51327;DHT22;37412;52.836;6.362;2023-03-04T18:22:35;5.40;99.90
51327;DHT22;37412;52.836;6.362;2023-03-04T18:25:21;5.40;99.90
51327;DHT22;37412;52.836;6.362;2023-03-04T18:28:07;5.40;99.90
51327;DHT22;37412;52.836;6.362;2023-03-04T18:30:53;5.40;99.90
51327;DHT22;37412;52.836;6.362;2023-03-04T18:33:39;5.40;99.90
51327;DHT22;37412;52.836;6.362;2023-03-04T18:36:25;5.40;99.90
51327;DHT22;37412;52.836;6.362;2023-03-04T18:39:11;5.40;99.90
51327;DHT22;37412;52.836;6.362;2023-03-04T18:41:57;5.40;99.90
51327;DHT22;37412;52.836;6.362;2023-03-04T18:44:43;5.40;99.90
51327;DHT22;37412;52.836;6.362;2023-03-04T18:47:30;5.40;99.90
51327;DHT22;37412;52.836;6.362;2023-03-04T18:50:17;5.40;99.90
51327;DHT22;37412;52.836;6.362;2023-03-04T18:53:03;5.30;99.90
51327;DHT22;37412;52.836;6.362;2023-03-04T18:55:49;5.30;99.90
51327;DHT22;37412;52.836;6.362;2023-03-04T18:58:36;5.30;99.90
51327;DHT22;37412;52.836;6.362;2023-03-04T19:01:23;5.30;99.90
51327;DHT22;37412;52.836;6.362;2023-03-04T19:04:10;5.30;99.90
51327;DHT22;37412;52.836;6.362;2023-03-04T19:06:56;5.30;99.90
51327;DHT22;37412;52.836;6.362;2023-03-04T19:09:43;5.30;99.90
51327;DHT22;37412;52.836;6.362;2023-03-04T19:12:29;5.30;99.90
51327;DHT22;37412;52.836;6.362;2023-03-04T19:15:16;5.30;99.90
51327;DHT22;37412;52.836;6.362;2023-03-04T19:18:03;5.30;99.90
51327;DHT22;37412;52.836;6.362;2023-03-04T19:20:50;5.20;99.90
51327;DHT22;37412;52.836;6.362;2023-03-04T19:23:36;5.20;99.90
51327;DHT22;37412;52.836;6.362;2023-03-04T19:26:22;5.10;99.90
51327;DHT22;37412;52.836;6.362;2023-03-04T19:29:08;5.10;99.90
51327;DHT22;37412;52.836;6.362;2023-03-04T19:31:54;5.00;99.90
51327;DHT22;37412;52.836;6.362;2023-03-04T19:34:40;5.00;99.90
51327;DHT22;37412;52.836;6.362;2023-03-04T19:37:26;4.90;99.90
51327;DHT22;37412;52.836;6.362;2023-03-04T19:40:12;4.90;99.90
51327;DHT22;37412;52.836;6.362;2023-03-04T19:42:58;4.80;99.90